Time;durP1;ratioP1;P1;durP2;ratioP2;P2;SDS_P1;SDS_P2;PMS_P1;PMS_P2;Temp;Humidity;BMP_temperature;BMP_pressure;BME280_temperature;BME280_humidity;BME280_pressure;Samples;Min_cycle;Max_cycle;Signal;HPM_P1;HPM_P2
2021/10/29 00:00:45;;;;;;;8.07;5.03;;;14.10;99.90;;;;;;6156180;23;20483;-83
2021/10/29 00:03:10;;;;;;;10.23;4.93;;;14.10;99.90;;;;;;6129876;23;20601;-84
2021/10/29 00:05:36;;;;;;;8.37;4.90;;;14.00;99.90;;;;;;6129735;23;20181;-84
2021/10/29 00:08:03;;;;;;;8.57;4.50;;;14.00;99.90;;;;;;6155953;23;20162;-85
2021/10/29 00:10:30;;;;;;;8.83;4.60;;;14.00;99.90;;;;;;6155857;23;20608;-85
2021/10/29 00:12:57;;;;;;;7.67;4.77;;;14.00;99.90;;;;;;6130104;23;20209;-83
2021/10/29 00:15:23;;;;;;;7.33;4.43;;;13.90;99.90;;;;;;6130201;23;20193;-84
2021/10/29 00:17:49;;;;;;;7.77;4.80;;;13.90;99.90;;;;;;6129972;23;20156;-83
2021/10/29 00:20:16;;;;;;;7.83;4.57;;;13.90;99.90;;;;;;6155758;23;20206;-85
2021/10/29 00:22:42;;;;;;;8.77;5.03;;;13.90;99.90;;;;;;6130199;23;20602;-84
2021/10/29 00:25:08;;;;;;;12.83;4.90;;;14.00;99.90;;;;;;6129841;23;20190;-85
2021/10/29 00:27:33;;;;;;;7.13;4.83;;;14.00;99.90;;;;;;6155940;23;20674;-79
2021/10/29 00:29:59;;;;;;;8.67;5.00;;;13.90;99.90;;;;;;6130018;23;20181;-78
2021/10/29 00:32:25;;;;;;;7.37;4.87;;;13.80;99.90;;;;;;6129917;23;20161;-79
2021/10/29 00:34:51;;;;;;;7.00;4.90;;;13.70;99.90;;;;;;6155479;23;20621;-78
2021/10/29 00:37:16;;;;;;;9.23;5.17;;;13.70;99.90;;;;;;6129196;23;20299;-83
2021/10/29 00:39:42;;;;;;;7.63;5.20;;;13.70;99.90;;;;;;6155502;23;20151;-85
2021/10/29 00:42:09;;;;;;;9.10;5.07;;;13.70;99.90;;;;;;6155884;23;20134;-83
2021/10/29 00:44:35;;;;;;;9.30;5.60;;;13.70;99.90;;;;;;6156082;23;20673;-82
2021/10/29 00:47:00;;;;;;;7.77;5.10;;;13.70;99.90;;;;;;6131474;23;20149;-84
2021/10/29 00:49:28;;;;;;;8.23;5.00;;;13.80;99.90;;;;;;6157448;23;20138;-84
2021/10/29 00:51:54;;;;;;;6.80;4.93;;;13.80;99.90;;;;;;6131825;23;20158;-84
2021/10/29 00:54:21;;;;;;;9.27;5.17;;;13.90;99.90;;;;;;6157460;23;20141;-85
2021/10/29 00:56:49;;;;;;;9.73;6.07;;;13.90;99.90;;;;;;6131837;23;20153;-85
2021/10/29 00:59:18;;;;;;;10.40;5.70;;;13.80;99.90;;;;;;6157526;23;20185;-78
2021/10/29 01:01:46;;;;;;;13.53;5.57;;;13.80;99.90;;;;;;6157695;23;20129;-77
2021/10/29 01:04:11;;;;;;;13.43;5.67;;;13.80;99.90;;;;;;6157209;23;20173;-77
2021/10/29 01:06:37;;;;;;;9.30;5.27;;;13.90;99.90;;;;;;6131140;23;20160;-77
2021/10/29 01:09:03;;;;;;;9.80;5.43;;;13.80;99.90;;;;;;6131559;23;20168;-77
2021/10/29 01:11:30;;;;;;;12.43;5.43;;;13.80;99.90;;;;;;6157026;23;20236;-77
2021/10/29 01:13:57;;;;;;;8.97;5.33;;;13.80;99.90;;;;;;6157566;23;20140;-77
2021/10/29 01:16:22;;;;;;;11.20;5.63;;;13.80;99.90;;;;;;6131364;23;20161;-78
2021/10/29 01:18:48;;;;;;;8.83;5.37;;;13.70;99.90;;;;;;6130984;23;20490;-84
2021/10/29 01:21:15;;;;;;;10.87;5.73;;;13.70;99.90;;;;;;6131251;23;20153;-85
2021/10/29 01:23:41;;;;;;;10.90;5.40;;;13.80;99.90;;;;;;6157241;23;20170;-84
2021/10/29 01:26:10;;;;;;;9.97;5.30;;;13.90;99.90;;;;;;6130849;23;20299;-84
2021/10/29 01:28:37;;;;;;;7.60;4.90;;;13.90;99.90;;;;;;6131106;23;20153;-84
2021/10/29 01:31:03;;;;;;;8.07;5.40;;;13.80;99.90;;;;;;6157151;23;20574;-85
2021/10/29 01:33:32;;;;;;;9.53;4.50;;;13.80;99.90;;;;;;6156833;23;20134;-77
2021/10/29 01:35:58;;;;;;;11.73;5.40;;;13.80;99.90;;;;;;6157048;23;20133;-77
2021/10/29 01:38:34;;;;;;;11.07;5.83;;;13.70;99.90;;;;;;6157642;23;20152;-77
2021/10/29 01:41:00;;;;;;;9.40;4.80;;;13.70;99.90;;;;;;6157040;23;20653;-77
2021/10/29 01:43:27;;;;;;;8.33;4.73;;;13.80;99.90;;;;;;6157221;23;20590;-78
2021/10/29 01:45:54;;;;;;;8.23;4.90;;;13.80;99.90;;;;;;6130788;23;20160;-77
2021/10/29 01:48:19;;;;;;;8.43;5.27;;;13.70;99.90;;;;;;6156640;23;20137;-77
2021/10/29 01:50:45;;;;;;;6.93;4.50;;;13.70;99.90;;;;;;6130684;23;20603;-77
2021/10/29 01:53:11;;;;;;;8.17;4.83;;;13.60;99.90;;;;;;6156979;23;20165;-77
2021/10/29 01:55:36;;;;;;;8.67;4.73;;;13.60;99.90;;;;;;6156770;23;20174;-77
2021/10/29 01:58:02;;;;;;;6.70;4.13;;;13.60;99.90;;;;;;6130292;23;20173;-78
2021/10/29 02:00:28;;;;;;;9.90;5.23;;;13.60;99.90;;;;;;6130674;23;20459;-84
2021/10/29 02:02:53;;;;;;;8.57;4.47;;;13.60;99.90;;;;;;6130337;23;20168;-84
2021/10/29 02:05:19;;;;;;;7.13;4.87;;;13.60;99.90;;;;;;6156981;23;20147;-84
2021/10/29 02:07:46;;;;;;;8.33;4.70;;;13.60;99.90;;;;;;6130084;23;20268;-77
2021/10/29 02:10:12;;;;;;;9.70;4.90;;;13.60;99.90;;;;;;6157012;23;20142;-77
2021/10/29 02:12:38;;;;;;;11.57;4.90;;;13.50;99.90;;;;;;6156763;23;20195;-77
2021/10/29 02:15:05;;;;;;;7.57;4.63;;;13.50;99.90;;;;;;6156844;23;20133;-77
2021/10/29 02:17:31;;;;;;;10.43;5.20;;;13.50;99.90;;;;;;6156260;23;20150;-78
2021/10/29 02:19:58;;;;;;;9.20;4.97;;;13.40;99.90;;;;;;6156600;23;20133;-80
2021/10/29 02:22:24;;;;;;;7.13;4.57;;;13.50;99.90;;;;;;6130611;23;20538;-78
2021/10/29 02:24:49;;;;;;;9.90;5.17;;;13.40;99.90;;;;;;6130411;23;20654;-77
2021/10/29 02:27:15;;;;;;;8.17;5.03;;;13.40;99.90;;;;;;6156382;23;20144;-77
2021/10/29 02:29:41;;;;;;;5.57;4.37;;;13.50;99.90;;;;;;6130465;23;20249;-77
2021/10/29 02:32:07;;;;;;;7.97;5.30;;;13.50;99.90;;;;;;6130442;23;20157;-77
2021/10/29 02:34:33;;;;;;;8.60;5.03;;;13.50;99.90;;;;;;6130598;23;20615;-78
2021/10/29 02:36:58;;;;;;;7.97;5.00;;;13.40;99.90;;;;;;6129814;23;20157;-84
2021/10/29 02:39:25;;;;;;;5.50;4.07;;;13.40;99.90;;;;;;6130072;23;20249;-78
2021/10/29 02:41:51;;;;;;;8.23;4.90;;;13.30;99.90;;;;;;6156456;23;20140;-77
2021/10/29 02:44:16;;;;;;;5.67;4.53;;;13.20;99.90;;;;;;6156207;23;20248;-77
2021/10/29 02:46:42;;;;;;;7.70;4.50;;;13.30;99.90;;;;;;6155729;23;20134;-77
2021/10/29 02:49:08;;;;;;;13.17;5.10;;;13.20;99.90;;;;;;6129833;23;20157;-83
2021/10/29 02:51:34;;;;;;;7.77;4.13;;;13.20;99.90;;;;;;6156783;23;20138;-84
2021/10/29 02:54:00;;;;;;;7.80;4.20;;;13.30;99.90;;;;;;6130589;23;20179;-84
2021/10/29 02:56:26;;;;;;;7.33;4.93;;;13.30;99.90;;;;;;6131079;23;20157;-84
2021/10/29 02:58:52;;;;;;;7.57;4.33;;;13.30;99.90;;;;;;6156930;23;20200;-84
2021/10/29 03:01:18;;;;;;;10.83;4.50;;;13.30;99.90;;;;;;6156354;23;20131;-83
2021/10/29 03:03:43;;;;;;;7.80;5.47;;;13.30;99.90;;;;;;6156593;23;20295;-85
2021/10/29 03:06:09;;;;;;;5.93;4.07;;;13.30;99.90;;;;;;6132397;23;20334;-83
2021/10/29 03:08:35;;;;;;;9.33;4.67;;;13.30;99.90;;;;;;6156351;23;20237;-84
2021/10/29 03:11:01;;;;;;;7.97;4.30;;;13.30;99.90;;;;;;6130699;23;20181;-78
2021/10/29 03:13:27;;;;;;;8.10;4.43;;;13.30;99.90;;;;;;6156517;23;20130;-84
2021/10/29 03:15:53;;;;;;;7.73;4.40;;;13.30;99.90;;;;;;6130522;23;20161;-84
2021/10/29 03:18:20;;;;;;;8.40;4.83;;;13.30;99.90;;;;;;6156650;23;20133;-83
2021/10/29 03:20:46;;;;;;;9.03;4.70;;;13.30;99.90;;;;;;6156592;23;20145;-84
2021/10/29 03:23:14;;;;;;;7.83;4.27;;;13.20;99.90;;;;;;6130261;23;20568;-84
2021/10/29 03:25:41;;;;;;;6.67;4.43;;;13.30;99.90;;;;;;6130503;23;20157;-84
2021/10/29 03:28:07;;;;;;;8.27;4.80;;;13.30;99.90;;;;;;6156184;23;20163;-84
2021/10/29 03:30:33;;;;;;;7.13;4.33;;;13.30;99.90;;;;;;6156164;23;20145;-85
2021/10/29 03:32:59;;;;;;;9.17;4.20;;;13.30;99.90;;;;;;6156515;23;20138;-83
2021/10/29 09:36:29;;;;;;;4.13;2.70;;;15.90;99.90;;;;;;6162140;23;20209;-85
2021/10/29 09:39:00;;;;;;;4.27;2.33;;;15.90;99.90;;;;;;6131786;23;20143;-85
2021/10/29 09:41:26;;;;;;;6.53;2.83;;;15.90;99.90;;;;;;6131624;23;20616;-86
2021/10/29 09:43:59;;;;;;;5.63;2.63;;;16.00;99.90;;;;;;6131276;23;20255;-85
2021/10/29 09:46:56;;;;;;;9.33;2.67;;;16.10;99.90;;;;;;6131096;23;20153;-85
2021/10/29 09:49:53;;;;;;;5.83;2.57;;;16.10;99.90;;;;;;6131623;23;20492;-85
2021/10/29 09:57:19;;;;;;;6.87;2.40;;;16.30;99.90;;;;;;6167545;23;20149;-85
2021/10/29 09:59:45;;;;;;;5.47;2.40;;;16.40;99.90;;;;;;6157313;23;20144;-85
2021/10/29 10:02:23;;;;;;;4.40;2.67;;;16.50;99.90;;;;;;6131184;23;20146;-85
2021/10/29 10:04:50;;;;;;;6.07;3.13;;;16.50;99.90;;;;;;6131443;23;20200;-85
2021/10/29 10:07:37;;;;;;;3.97;2.40;;;16.50;99.90;;;;;;6131648;23;20180;-85
2021/10/29 10:10:06;;;;;;;4.93;2.77;;;16.60;99.90;;;;;;6131234;23;20249;-85
2021/10/29 10:12:39;;;;;;;9.30;2.73;;;16.70;99.90;;;;;;6130994;23;20179;-85
2021/10/29 10:15:06;;;;;;;4.70;2.37;;;16.80;99.90;;;;;;6131619;23;20470;-85
2021/10/29 10:17:32;;;;;;;6.67;2.40;;;16.90;99.90;;;;;;6130579;23;20194;-85
2021/10/29 10:19:59;;;;;;;5.63;2.47;;;16.80;99.90;;;;;;6131098;23;20156;-85
2021/10/29 10:22:27;;;;;;;5.63;2.60;;;16.90;99.90;;;;;;6131113;23;20153;-85
2021/10/29 10:25:29;;;;;;;5.43;2.20;;;17.10;99.90;;;;;;6131286;23;20187;-85
2021/10/29 10:40:14;;;;;;;6.00;2.30;;;18.30;99.90;;;;;;6166672;23;20454;-84
2021/10/29 10:44:44;;;;;;;7.27;2.23;;;21.40;96.20;;;;;;6156898;23;20216;-86
2021/10/29 10:47:14;;;;;;;9.97;6.00;;;21.60;95.80;;;;;;6131056;23;20586;-86
2021/10/29 10:49:49;;;;;;;7.43;3.90;;;21.80;95.50;;;;;;6131047;23;20235;-86
2021/10/29 10:52:21;;;;;;;7.83;4.73;;;22.30;95.10;;;;;;6130665;23;20156;-85
2021/10/29 10:54:50;;;;;;;5.57;2.77;;;22.60;94.40;;;;;;6157121;23;20474;-85
2021/10/29 11:10:30;;;;;;;9.17;4.13;;;24.20;92.10;;;;;;6156763;23;20268;-84
2021/10/29 11:13:04;;;;;;;6.33;2.87;;;24.40;92.00;;;;;;6156251;23;20169;-85
2021/10/29 11:15:30;;;;;;;3.73;2.40;;;24.80;91.10;;;;;;6130600;23;20146;-85
2021/10/29 11:18:03;;;;;;;8.87;2.40;;;24.80;91.00;;;;;;6130355;23;20153;-89
2021/10/29 11:23:07;;;;;;;7.90;2.30;;;24.50;90.90;;;;;;6156398;23;20582;-86
2021/10/29 11:26:05;;;;;;;6.27;2.73;;;24.20;91.20;;;;;;6130568;23;20264;-86
2021/10/29 11:28:36;;;;;;;4.83;2.37;;;24.00;91.40;;;;;;6104955;23;20161;-85
2021/10/29 11:31:04;;;;;;;7.13;3.30;;;24.20;91.30;;;;;;6130472;23;20185;-85
2021/10/29 11:33:30;;;;;;;6.03;2.80;;;24.50;91.00;;;;;;6130202;23;20253;-88
2021/10/29 11:36:05;;;;;;;5.63;2.10;;;25.00;90.50;;;;;;6130271;23;20175;-86
2021/10/29 11:38:33;;;;;;;5.03;2.60;;;25.30;89.90;;;;;;6130970;23;20147;-87
2021/10/29 11:41:04;;;;;;;3.90;1.87;;;25.00;90.10;;;;;;6126129;23;20161;-85
2021/10/29 11:43:32;;;;;;;4.73;2.37;;;25.00;90.30;;;;;;6154565;23;20166;-88
2021/10/29 11:46:00;;;;;;;4.93;2.50;;;25.10;90.30;;;;;;6130274;23;20192;-89
2021/10/29 11:48:27;;;;;;;6.13;2.33;;;25.40;89.30;;;;;;6129942;23;20151;-89
2021/10/29 11:51:12;;;;;;;3.80;2.00;;;24.90;90.00;;;;;;6128565;23;20177;-89
2021/10/29 11:53:47;;;;;;;8.23;2.50;;;24.70;90.40;;;;;;6130316;23;20588;-89
2021/10/29 11:57:03;;;;;;;6.03;2.10;;;25.30;89.40;;;;;;6130207;23;20592;-89
2021/10/29 12:07:15;;;;;;;3.47;2.13;;;25.00;90.10;;;;;;6156225;23;20153;-89
2021/10/29 12:09:44;;;;;;;6.87;2.40;;;25.50;89.60;;;;;;6130528;23;20180;-87
2021/10/29 12:12:21;;;;;;;6.47;2.47;;;25.40;88.60;;;;;;6129801;23;20491;-86
2021/10/29 12:14:50;;;;;;;6.10;2.60;;;24.00;90.70;;;;;;6130081;23;20159;-88
2021/10/29 12:17:24;;;;;;;6.73;2.77;;;23.90;91.10;;;;;;6130518;23;20149;-88
2021/10/29 12:20:06;;;;;;;7.63;2.47;;;22.90;92.10;;;;;;6130234;23;20153;-88
2021/10/29 12:22:37;;;;;;;5.13;2.30;;;22.20;93.00;;;;;;6129607;23;20512;-87
2021/10/29 12:25:21;;;;;;;4.43;2.50;;;21.90;93.60;;;;;;6130027;23;20188;-87
2021/10/29 12:27:53;;;;;;;3.10;2.33;;;21.80;93.50;;;;;;6130597;23;20152;-87
2021/10/29 12:30:27;;;;;;;6.23;2.73;;;21.40;94.30;;;;;;6130671;23;20156;-84
2021/10/29 13:03:09;;;;;;;6.80;2.50;;;20.00;97.00;;;;;;6162192;23;20169;-88
2021/10/29 13:05:35;;;;;;;4.37;2.50;;;19.80;97.20;;;;;;6140178;23;20197;-88
2021/10/29 13:08:23;;;;;;;11.03;2.43;;;19.60;97.70;;;;;;6139570;23;20224;-87
2021/10/29 13:10:57;;;;;;;4.20;2.77;;;19.40;98.10;;;;;;6139378;23;20180;-88
2021/10/29 13:13:38;;;;;;;7.27;2.47;;;19.30;98.70;;;;;;6140361;23;20180;-87
2021/10/29 13:16:08;;;;;;;6.67;2.17;;;19.30;98.50;;;;;;6134142;23;20159;-87
2021/10/29 13:35:50;;;;;;;5.77;2.30;;;18.50;99.90;;;;;;6158116;23;20548;-87
2021/10/29 13:51:34;;;;;;;6.33;2.57;;;18.50;99.90;;;;;;6157448;23;20535;-85
2021/10/29 14:31:24;;;;;;;4.90;2.30;;;18.00;99.90;;;;;;6167509;23;20219;-83
2021/10/29 14:33:59;;;;;;;5.70;2.13;;;18.00;99.90;;;;;;6130685;23;20195;-84
2021/10/29 14:36:28;;;;;;;4.03;1.80;;;18.20;99.90;;;;;;6130658;23;20463;-84
2021/10/29 14:39:00;;;;;;;3.17;2.03;;;18.20;99.90;;;;;;6130534;23;20173;-86
2021/10/29 14:41:35;;;;;;;2.90;1.93;;;18.20;99.90;;;;;;6131243;23;20159;-84
2021/10/29 14:44:08;;;;;;;6.53;3.10;;;18.10;99.90;;;;;;6130476;23;20179;-84
2021/10/29 14:46:43;;;;;;;10.73;2.70;;;17.90;99.90;;;;;;6156794;23;20143;-84
2021/10/29 14:49:25;;;;;;;6.37;2.70;;;17.30;99.90;;;;;;6131041;23;20150;-84
2021/10/29 15:16:03;;;;;;;15.03;5.13;;;15.30;99.90;;;;;;6156763;23;20147;-87
2021/10/29 15:29:19;;;;;;;9.13;5.57;;;15.70;99.90;;;;;;6167030;23;20556;-86
2021/10/29 15:45:35;;;;;;;6.47;4.73;;;15.50;99.90;;;;;;6156419;23;20245;-85
2021/10/29 15:48:07;;;;;;;6.70;5.23;;;15.60;99.90;;;;;;6130652;23;20474;-85
2021/10/29 15:50:35;;;;;;;7.20;4.53;;;15.50;99.90;;;;;;6130293;23;20208;-85
2021/10/29 15:53:02;;;;;;;6.77;5.10;;;15.50;99.90;;;;;;6131067;23;20162;-85
2021/10/29 15:55:40;;;;;;;11.27;4.47;;;15.40;99.90;;;;;;6131025;23;20155;-86
2021/10/29 15:58:18;;;;;;;8.83;4.33;;;15.40;99.90;;;;;;6156944;23;20140;-88
2021/10/29 16:19:29;;;;;;;7.77;4.30;;;15.30;99.90;;;;;;6166416;23;20578;-85
2021/10/29 16:21:55;;;;;;;10.03;4.60;;;15.30;99.90;;;;;;6130752;23;20159;-85
2021/10/29 16:24:22;;;;;;;6.27;4.43;;;15.30;99.90;;;;;;6130431;23;20177;-85
2021/10/29 16:26:49;;;;;;;10.27;5.40;;;15.40;99.90;;;;;;6130646;23;20238;-86
2021/10/29 16:29:20;;;;;;;13.40;10.10;;;15.40;99.90;;;;;;6130528;23;20611;-85
2021/10/29 16:31:47;;;;;;;8.47;6.57;;;15.40;99.90;;;;;;6130045;23;20163;-85
2021/10/29 16:34:13;;;;;;;7.97;4.87;;;15.40;99.90;;;;;;6130296;23;20152;-85
2021/10/29 16:36:39;;;;;;;8.97;4.70;;;15.30;99.90;;;;;;6130260;23;20501;-85
2021/10/29 16:39:05;;;;;;;6.60;4.83;;;15.40;99.90;;;;;;6130309;23;20652;-85
2021/10/29 16:41:32;;;;;;;17.30;9.77;;;15.30;99.90;;;;;;6130346;23;20159;-86
2021/10/29 16:43:58;;;;;;;23.80;13.00;;;15.40;99.90;;;;;;6130105;23;20232;-85
2021/10/29 16:46:24;;;;;;;11.27;7.37;;;15.50;99.90;;;;;;6130133;23;20148;-85
2021/10/29 16:48:49;;;;;;;25.13;15.67;;;15.50;99.90;;;;;;6130274;23;20211;-85
2021/10/29 16:51:17;;;;;;;18.17;13.10;;;15.50;99.90;;;;;;6129983;23;20142;-85
2021/10/29 16:53:44;;;;;;;18.70;10.23;;;15.50;99.90;;;;;;6130376;23;20603;-85
2021/10/29 16:56:12;;;;;;;11.77;6.80;;;15.40;99.90;;;;;;6156433;23;20140;-85
2021/10/29 16:58:39;;;;;;;8.43;4.93;;;15.50;99.90;;;;;;6130434;23;20246;-85
2021/10/29 17:01:05;;;;;;;8.63;5.50;;;15.60;99.90;;;;;;6129603;23;20166;-86
2021/10/29 17:03:31;;;;;;;12.43;7.13;;;15.60;99.90;;;;;;6130112;23;20543;-86
2021/10/29 17:05:58;;;;;;;10.10;6.07;;;15.60;99.90;;;;;;6130191;23;20168;-85
2021/10/29 17:08:24;;;;;;;9.97;5.33;;;15.60;99.90;;;;;;6129895;23;20298;-86
2021/10/29 17:10:50;;;;;;;7.67;5.30;;;15.60;99.90;;;;;;6130229;23;20304;-86
2021/10/29 17:13:21;;;;;;;8.27;5.00;;;15.60;99.90;;;;;;6129971;23;20169;-92
2021/10/29 17:15:47;;;;;;;8.37;4.20;;;15.60;99.90;;;;;;6129469;23;20151;-88
2021/10/29 17:18:13;;;;;;;7.33;4.53;;;15.60;99.90;;;;;;6129877;23;20159;-87
2021/10/29 17:20:39;;;;;;;8.13;4.80;;;15.60;99.90;;;;;;6120710;23;20512;-90
2021/10/29 17:23:05;;;;;;;8.70;5.00;;;15.60;99.90;;;;;;6130888;23;20146;-89
2021/10/29 17:25:31;;;;;;;10.30;5.10;;;15.60;99.90;;;;;;6129652;23;20190;-89
2021/10/29 17:27:57;;;;;;;6.87;5.17;;;15.60;99.90;;;;;;6129416;23;20594;-87
2021/10/29 17:30:23;;;;;;;8.60;4.37;;;15.60;99.90;;;;;;6131099;23;20204;-90
2021/10/29 17:32:50;;;;;;;8.33;5.30;;;15.70;99.90;;;;;;6131817;23;20169;-89
2021/10/29 17:35:17;;;;;;;18.73;9.77;;;15.60;99.90;;;;;;6131436;23;20501;-90
2021/10/29 17:37:43;;;;;;;10.50;5.37;;;15.60;99.90;;;;;;6131955;23;20163;-90
2021/10/29 17:40:11;;;;;;;7.83;4.80;;;15.60;99.90;;;;;;6137446;23;20691;-91
2021/10/29 17:42:37;;;;;;;9.20;5.77;;;15.70;99.90;;;;;;6135910;23;20594;-90
2021/10/29 17:45:07;;;;;;;61.53;27.33;;;15.70;99.90;;;;;;6131535;23;20561;-89
2021/10/29 17:47:33;;;;;;;31.77;16.47;;;15.70;99.90;;;;;;6131942;23;20161;-90
2021/10/29 17:49:59;;;;;;;36.53;17.70;;;15.80;99.90;;;;;;6134816;23;20183;-90
2021/10/29 17:52:26;;;;;;;8.73;4.60;;;15.80;99.90;;;;;;6134410;23;20229;-89
2021/10/29 17:54:54;;;;;;;14.47;7.37;;;15.60;99.90;;;;;;6132634;23;20162;-89
2021/10/29 17:57:21;;;;;;;11.23;6.60;;;15.60;99.90;;;;;;6106903;23;20153;-90
2021/10/29 17:59:48;;;;;;;16.13;9.23;;;15.60;99.90;;;;;;6131715;23;20506;-88
2021/10/29 18:02:20;;;;;;;16.03;8.80;;;15.60;99.90;;;;;;6130866;23;20173;-88
2021/10/29 18:04:46;;;;;;;11.03;7.50;;;15.50;99.90;;;;;;6131296;23;20207;-90
2021/10/29 18:07:12;;;;;;;7.20;4.97;;;15.50;99.90;;;;;;6131374;23;20634;-90
2021/10/29 18:09:38;;;;;;;9.17;5.43;;;15.20;99.90;;;;;;6156740;23;20194;-90
2021/10/29 18:12:09;;;;;;;13.20;6.73;;;15.20;99.90;;;;;;6135225;23;20153;-87
2021/10/29 18:14:36;;;;;;;15.00;9.50;;;15.20;99.90;;;;;;6147139;23;20150;-86
2021/10/29 18:17:04;;;;;;;12.00;5.67;;;15.10;99.90;;;;;;6146076;23;20159;-86
2021/10/29 18:19:31;;;;;;;8.40;4.20;;;15.20;99.90;;;;;;6134498;23;20151;-90
2021/10/29 18:21:56;;;;;;;9.70;6.00;;;15.40;99.90;;;;;;6132802;23;20151;-89
2021/10/29 18:24:22;;;;;;;6.90;4.30;;;15.40;99.90;;;;;;6131802;23;20720;-89
2021/10/29 18:26:48;;;;;;;5.00;4.50;;;15.40;99.90;;;;;;6131440;23;20156;-90
2021/10/29 18:29:14;;;;;;;9.13;3.83;;;15.30;99.90;;;;;;6130285;23;20160;-90
2021/10/29 18:31:40;;;;;;;6.57;4.23;;;15.30;99.90;;;;;;6131308;23;20151;-90
2021/10/29 18:34:06;;;;;;;6.03;3.70;;;15.20;99.90;;;;;;6131174;23;20148;-90
2021/10/29 18:36:32;;;;;;;6.47;4.00;;;15.10;99.90;;;;;;6131095;23;20185;-90
2021/10/29 18:38:59;;;;;;;9.93;4.80;;;15.10;99.90;;;;;;6130851;23;20575;-90
2021/10/29 18:41:30;;;;;;;4.63;3.90;;;15.10;99.90;;;;;;6130918;23;20160;-90
2021/10/29 18:43:55;;;;;;;7.50;3.80;;;15.20;99.90;;;;;;6130625;23;20233;-90
2021/10/29 18:46:21;;;;;;;4.87;3.10;;;15.00;99.90;;;;;;6131375;23;20159;-90
2021/10/29 18:48:49;;;;;;;5.87;3.10;;;14.90;99.90;;;;;;6131159;23;20647;-90
2021/10/29 18:51:15;;;;;;;5.33;3.70;;;14.90;99.90;;;;;;6130875;23;20156;-90
2021/10/29 18:53:41;;;;;;;6.10;3.43;;;15.00;99.90;;;;;;6131395;23;20639;-90
2021/10/29 18:56:07;;;;;;;5.33;3.50;;;14.90;99.90;;;;;;6131365;23;20525;-90
2021/10/29 18:58:32;;;;;;;6.47;3.70;;;14.90;99.90;;;;;;6130985;23;20153;-90
2021/10/29 19:01:01;;;;;;;4.77;3.27;;;15.00;99.90;;;;;;6130942;23;20149;-90
2021/10/29 19:03:26;;;;;;;7.33;3.60;;;15.00;99.90;;;;;;6137208;23;20521;-89
2021/10/29 19:05:52;;;;;;;6.77;3.57;;;15.00;99.90;;;;;;6139516;23;20285;-87
2021/10/29 19:08:18;;;;;;;4.43;3.70;;;15.00;99.90;;;;;;6139274;23;20150;-90
2021/10/29 19:10:43;;;;;;;7.57;4.67;;;15.10;99.90;;;;;;6138395;23;20517;-89
2021/10/29 19:13:10;;;;;;;6.20;4.23;;;15.10;99.90;;;;;;6139540;23;20144;-88
2021/10/29 19:15:36;;;;;;;4.80;3.27;;;15.00;99.90;;;;;;6140138;23;20151;-89
2021/10/29 19:18:01;;;;;;;9.97;8.07;;;15.00;99.90;;;;;;6138684;23;20159;-90
2021/10/29 19:20:28;;;;;;;5.97;3.73;;;15.00;99.90;;;;;;6138034;23;20143;-90
2021/10/29 19:22:55;;;;;;;5.50;3.50;;;15.00;99.90;;;;;;6137754;23;20152;-90
2021/10/29 19:25:21;;;;;;;6.87;4.23;;;14.80;99.90;;;;;;6134629;23;20181;-91
2021/10/29 19:27:47;;;;;;;20.70;10.23;;;14.70;99.90;;;;;;6136619;23;20163;-90
2021/10/29 19:30:15;;;;;;;15.43;9.37;;;14.80;99.90;;;;;;6136528;23;20584;-90
2021/10/29 19:32:41;;;;;;;20.63;10.80;;;14.70;99.90;;;;;;6137915;23;20213;-91
2021/10/29 19:35:11;;;;;;;10.50;4.50;;;14.70;99.90;;;;;;6138135;23;20586;-90
2021/10/29 19:37:47;;;;;;;14.43;9.20;;;14.70;99.90;;;;;;6137078;23;20154;-90
2021/10/29 19:40:22;;;;;;;12.97;8.60;;;14.70;99.90;;;;;;6136796;23;20539;-89
2021/10/29 19:42:49;;;;;;;6.87;4.77;;;14.80;99.90;;;;;;6136827;23;20171;-90
2021/10/29 19:45:15;;;;;;;10.33;5.50;;;14.80;99.90;;;;;;6137375;23;20188;-90
2021/10/29 19:47:41;;;;;;;10.67;6.87;;;14.80;99.90;;;;;;6136583;23;20499;-90
2021/10/29 19:50:08;;;;;;;7.93;4.33;;;14.80;99.90;;;;;;6135894;23;20581;-90
2021/10/29 19:52:34;;;;;;;7.53;5.40;;;14.80;99.90;;;;;;6136400;23;20192;-90
2021/10/29 19:55:02;;;;;;;6.00;3.93;;;14.80;99.90;;;;;;6135326;23;20235;-89
2021/10/29 20:00:03;;;;;;;5.63;4.47;;;14.70;99.90;;;;;;6172482;23;20143;-92
2021/10/29 20:02:29;;;;;;;8.47;3.80;;;14.70;99.90;;;;;;6138663;23;20177;-89
2021/10/29 20:04:55;;;;;;;8.80;4.03;;;14.70;99.90;;;;;;6137505;23;20630;-90
2021/10/29 20:07:21;;;;;;;8.30;3.70;;;14.60;99.90;;;;;;6136788;23;20171;-89
2021/10/29 20:09:47;;;;;;;10.20;6.87;;;14.70;99.90;;;;;;6135706;23;20184;-91
2021/10/29 20:12:13;;;;;;;7.43;4.33;;;14.70;99.90;;;;;;6136571;23;20147;-89
2021/10/29 20:14:39;;;;;;;12.23;7.93;;;14.70;99.90;;;;;;6137904;23;20145;-91
2021/10/29 20:17:05;;;;;;;12.07;8.13;;;14.60;99.90;;;;;;6137319;23;20158;-89
2021/10/29 20:19:30;;;;;;;7.03;4.03;;;14.70;99.90;;;;;;6136530;23;20147;-89
2021/10/29 20:21:56;;;;;;;5.10;3.47;;;14.70;99.90;;;;;;6137361;23;20190;-91
2021/10/29 20:24:22;;;;;;;5.20;3.43;;;14.70;99.90;;;;;;6136706;23;20209;-90
2021/10/29 20:26:48;;;;;;;5.10;2.87;;;14.70;99.90;;;;;;6137727;23;20147;-89
2021/10/29 20:29:15;;;;;;;6.60;3.10;;;14.60;99.90;;;;;;6137245;23;20232;-90
2021/10/29 20:31:42;;;;;;;5.17;3.43;;;14.60;99.90;;;;;;6137333;23;20157;-89
2021/10/29 20:34:09;;;;;;;5.97;3.23;;;14.70;99.90;;;;;;6137426;23;20156;-89
2021/10/29 20:36:36;;;;;;;5.30;3.77;;;14.60;99.90;;;;;;6137761;23;20174;-90
2021/10/29 20:39:06;;;;;;;6.63;3.20;;;14.50;99.90;;;;;;6140817;23;20178;-90
2021/10/29 20:41:32;;;;;;;6.00;3.87;;;14.50;99.90;;;;;;6139241;23;20189;-90
2021/10/29 20:43:58;;;;;;;5.07;3.17;;;14.40;99.90;;;;;;6140460;23;20169;-90
2021/10/29 20:46:24;;;;;;;3.77;2.83;;;14.40;99.90;;;;;;6144606;23;20161;-91
2021/10/29 20:48:49;;;;;;;5.03;2.97;;;14.30;99.90;;;;;;6146462;23;20181;-91
2021/10/29 20:51:18;;;;;;;5.37;3.00;;;14.20;99.90;;;;;;6148161;23;20143;-89
2021/10/29 20:53:43;;;;;;;4.33;2.40;;;14.30;99.90;;;;;;6146417;23;20148;-90
2021/10/29 20:56:09;;;;;;;5.37;2.90;;;14.40;99.90;;;;;;6145483;23;20202;-90
2021/10/29 20:58:37;;;;;;;4.80;3.00;;;14.50;99.90;;;;;;6142511;23;20475;-91
2021/10/29 21:01:03;;;;;;;5.37;2.73;;;14.40;99.90;;;;;;6140821;23;20221;-90
2021/10/29 21:03:30;;;;;;;5.60;2.80;;;14.40;99.90;;;;;;6139750;23;20180;-91
2021/10/29 21:05:56;;;;;;;5.60;3.67;;;14.30;99.90;;;;;;6139631;23;20194;-90
2021/10/29 21:08:22;;;;;;;4.97;3.50;;;14.20;99.90;;;;;;6139490;23;20152;-90
2021/10/29 21:10:47;;;;;;;3.23;2.80;;;14.30;99.90;;;;;;6139251;23;20182;-91
2021/10/29 21:13:15;;;;;;;2.77;2.10;;;14.40;99.90;;;;;;6139819;23;20148;-89
2021/10/29 21:15:41;;;;;;;5.37;2.60;;;14.30;99.90;;;;;;6138477;23;20584;-91
2021/10/29 21:18:06;;;;;;;4.83;2.60;;;14.30;99.90;;;;;;6139685;23;20204;-90
2021/10/29 21:20:32;;;;;;;5.37;4.40;;;14.30;99.90;;;;;;6139904;23;20239;-90
2021/10/29 21:22:58;;;;;;;5.57;2.47;;;14.30;99.90;;;;;;6139639;23;20149;-90
2021/10/29 21:25:24;;;;;;;4.07;2.77;;;14.20;99.90;;;;;;6139387;23;20188;-89
2021/10/29 21:27:50;;;;;;;3.17;2.37;;;14.20;99.90;;;;;;6139334;23;20154;-91
2021/10/29 21:30:16;;;;;;;3.87;2.67;;;14.20;99.90;;;;;;6140432;23;20155;-90
2021/10/29 21:32:42;;;;;;;5.07;3.00;;;14.20;99.90;;;;;;6138973;23;20224;-89
2021/10/29 21:35:08;;;;;;;3.07;2.40;;;14.30;99.90;;;;;;6140156;23;20164;-90
2021/10/29 21:37:35;;;;;;;4.77;2.50;;;14.30;99.90;;;;;;6139486;23;20159;-89
2021/10/29 21:40:01;;;;;;;5.47;3.53;;;14.40;99.90;;;;;;6139754;23;20158;-90
2021/10/29 21:42:28;;;;;;;5.43;2.30;;;14.40;99.90;;;;;;6165654;23;20184;-91
2021/10/29 21:44:53;;;;;;;3.87;2.43;;;14.30;99.90;;;;;;6139762;23;20520;-89
2021/10/29 21:47:21;;;;;;;4.37;2.30;;;14.20;99.90;;;;;;6139565;23;20143;-88
2021/10/29 21:49:48;;;;;;;4.47;2.43;;;14.30;99.90;;;;;;6139889;23;20490;-90
2021/10/29 21:52:18;;;;;;;3.27;2.00;;;14.20;99.90;;;;;;6141977;23;20179;-90
2021/10/29 21:54:44;;;;;;;5.47;2.80;;;14.30;99.90;;;;;;6139558;23;20160;-91
2021/10/29 21:57:10;;;;;;;3.20;2.43;;;14.40;99.90;;;;;;6136600;23;20487;-91
2021/10/29 21:59:36;;;;;;;2.27;1.87;;;14.40;99.90;;;;;;6140014;23;20180;-91
2021/10/29 22:02:02;;;;;;;4.00;1.90;;;14.30;99.90;;;;;;6165571;23;20136;-89
2021/10/29 22:04:29;;;;;;;4.20;2.23;;;14.20;99.90;;;;;;6140795;23;20183;-89
2021/10/29 22:06:55;;;;;;;3.03;2.13;;;14.20;99.90;;;;;;6139640;23;20241;-89
2021/10/29 22:09:21;;;;;;;3.00;2.40;;;14.20;99.90;;;;;;6139887;23;20205;-90
2021/10/29 22:11:47;;;;;;;2.40;2.20;;;14.10;99.90;;;;;;6143249;23;20198;-90
2021/10/29 22:14:15;;;;;;;3.40;2.07;;;14.20;99.90;;;;;;6141135;23;20156;-90
2021/10/29 22:16:42;;;;;;;3.93;2.10;;;14.10;99.90;;;;;;6140582;23;20179;-90
2021/10/29 22:19:08;;;;;;;3.83;2.37;;;14.00;99.90;;;;;;6165996;23;20132;-90
2021/10/29 22:21:34;;;;;;;4.80;2.53;;;14.20;99.90;;;;;;6138326;23;20201;-90